createdAt,value
2023-05-09T00:01:22.599Z,9.30
2023-05-09T00:02:46.024Z,10.23
2023-05-09T00:04:09.082Z,10.30
2023-05-09T00:05:32.306Z,9.65
2023-05-09T00:06:55.342Z,11.30
2023-05-09T00:08:18.268Z,9.82
2023-05-09T00:09:41.180Z,9.98
2023-05-09T00:11:04.589Z,9.68
2023-05-09T00:12:28.545Z,10.45
2023-05-09T00:13:52.064Z,9.73
2023-05-09T00:15:15.605Z,9.90
2023-05-09T00:16:38.821Z,9.95
2023-05-09T00:18:01.947Z,10.20
2023-05-09T00:19:04.867Z,11.05
2023-05-09T00:20:11.961Z,10.32
2023-05-09T00:21:14.993Z,10.15
2023-05-09T00:22:21.448Z,10.05
2023-05-09T00:23:24.696Z,10.07
2023-05-09T00:24:28.401Z,10.85
2023-05-09T00:25:32.045Z,9.57
2023-05-09T00:26:35.099Z,10.90
2023-05-09T00:27:38.697Z,9.80
2023-05-09T00:28:41.841Z,9.23
2023-05-09T00:29:45.094Z,9.48
2023-05-09T00:30:48.200Z,9.48
2023-05-09T00:31:51.391Z,9.73
2023-05-09T00:32:55.538Z,9.73
2023-05-09T00:33:58.730Z,10.07
2023-05-09T00:35:02.403Z,10.38
2023-05-09T00:36:06.369Z,10.73
2023-05-09T00:37:10.197Z,10.02
2023-05-09T00:38:14.014Z,10.98
2023-05-09T00:39:17.457Z,10.00
2023-05-09T00:40:23.163Z,10.43
2023-05-09T00:41:26.871Z,10.25
2023-05-09T00:42:30.226Z,9.75
2023-05-09T00:43:33.315Z,10.23
2023-05-09T00:44:36.471Z,10.10
2023-05-09T00:45:39.756Z,10.35
2023-05-09T00:46:43.619Z,9.48
2023-05-09T00:47:46.727Z,10.43
2023-05-09T00:48:50.287Z,9.20
2023-05-09T00:49:53.451Z,9.00
2023-05-09T00:50:56.820Z,9.50
2023-05-09T00:52:01.155Z,9.80
2023-05-09T00:53:06.316Z,9.90
2023-05-09T00:54:16.106Z,9.15
2023-05-09T00:55:19.991Z,9.75
2023-05-09T00:56:23.308Z,9.30
2023-05-09T00:57:27.012Z,10.20
2023-05-09T00:58:30.961Z,10.43
2023-05-09T00:59:34.131Z,9.40
2023-05-09T01:00:37.308Z,9.55
2023-05-09T01:01:41.015Z,9.75
2023-05-09T01:02:50.316Z,9.68
2023-05-09T01:03:54.823Z,10.27
2023-05-09T01:04:58.619Z,9.68
2023-05-09T01:06:11.805Z,10.32
2023-05-09T01:08:15.068Z,9.52
2023-05-09T01:09:29.729Z,9.40
2023-05-09T01:11:02.271Z,8.90
2023-05-09T01:12:52.644Z,9.20
2023-05-09T01:14:30.083Z,8.82
2023-05-09T01:15:49.555Z,9.35
2023-05-09T01:17:06.459Z,9.73
2023-05-09T01:18:50.031Z,10.30
2023-05-09T01:20:13.132Z,8.55
2023-05-09T01:21:28.092Z,8.52
2023-05-09T01:22:36.141Z,8.95
2023-05-09T01:23:45.047Z,9.20
2023-05-09T01:25:07.479Z,9.55
2023-05-09T01:26:46.826Z,9.13
2023-05-09T01:28:32.635Z,8.93
2023-05-09T01:29:48.686Z,8.15
2023-05-09T01:30:53.655Z,9.77
2023-05-09T01:31:58.480Z,9.10
2023-05-09T01:33:06.590Z,8.68
2023-05-09T01:34:11.396Z,8.93
2023-05-09T01:35:16.559Z,9.00
2023-05-09T01:36:21.525Z,8.70
2023-05-09T01:37:35.982Z,10.02
2023-05-09T01:38:41.317Z,9.20
2023-05-09T01:39:50.048Z,8.57
2023-05-09T01:40:57.083Z,9.43
2023-05-09T01:42:04.854Z,8.77
2023-05-09T01:43:11.281Z,9.27
2023-05-09T01:44:17.108Z,9.02
2023-05-09T01:45:21.123Z,8.50
2023-05-09T01:46:27.263Z,8.98
2023-05-09T01:47:31.676Z,8.45
2023-05-09T01:48:37.825Z,9.02
2023-05-09T01:49:43.145Z,8.90
2023-05-09T01:50:47.697Z,9.10
2023-05-09T01:51:52.437Z,8.73
2023-05-09T01:52:58.610Z,9.88
2023-05-09T01:54:04.007Z,9.43
2023-05-09T01:55:11.367Z,9.20
2023-05-09T01:56:17.181Z,9.27
2023-05-09T01:57:22.169Z,9.35
2023-05-09T01:58:27.174Z,9.70
2023-05-09T01:59:33.495Z,9.20
2023-05-09T02:00:37.930Z,9.48
2023-05-09T02:01:41.423Z,9.82
2023-05-09T02:02:46.173Z,9.50
2023-05-09T02:03:54.793Z,9.35
2023-05-09T02:04:58.803Z,10.68
2023-05-09T02:06:03.549Z,9.48
2023-05-09T02:07:09.672Z,9.43
2023-05-09T02:08:15.516Z,8.73
2023-05-09T02:09:22.030Z,9.55
2023-05-09T02:10:27.506Z,9.75
2023-05-09T02:11:32.229Z,9.60
2023-05-09T02:12:36.473Z,9.55
2023-05-09T02:13:40.143Z,9.63
2023-05-09T02:14:44.272Z,9.68
2023-05-09T02:15:47.875Z,9.75
2023-05-09T02:16:53.004Z,11.23
2023-05-09T02:17:57.413Z,9.50
2023-05-09T02:19:00.613Z,10.32
2023-05-09T02:20:05.427Z,10.43
2023-05-09T02:21:20.669Z,9.20
2023-05-09T02:22:25.093Z,10.27
2023-05-09T02:23:29.781Z,9.27
2023-05-09T02:24:36.708Z,9.38
2023-05-09T02:25:40.731Z,10.52
2023-05-09T02:26:44.097Z,9.15
2023-05-09T02:27:47.797Z,9.85
2023-05-09T02:28:51.708Z,9.93
2023-05-09T02:30:00.147Z,10.15
2023-05-09T02:31:07.344Z,9.55
2023-05-09T02:32:23.388Z,9.77
2023-05-09T02:33:30.930Z,9.43
2023-05-09T02:34:34.525Z,10.10
2023-05-09T02:35:39.832Z,9.63
2023-05-09T02:36:43.417Z,8.82
2023-05-09T02:37:47.662Z,9.48
2023-05-09T02:38:51.067Z,10.10
2023-05-09T02:39:55.628Z,9.55
2023-05-09T02:40:58.870Z,9.90
2023-05-09T02:42:16.067Z,9.55
2023-05-09T02:43:20.278Z,10.50
2023-05-09T02:44:24.002Z,10.13
2023-05-09T02:45:27.074Z,11.27
2023-05-09T02:46:31.226Z,10.77
2023-05-09T02:47:34.667Z,10.25
2023-05-09T02:48:37.880Z,10.32
2023-05-09T02:49:41.676Z,11.50
2023-05-09T02:50:45.989Z,10.27
2023-05-09T02:51:49.128Z,10.73
2023-05-09T02:52:52.397Z,9.23
2023-05-09T02:53:55.945Z,11.10
2023-05-09T02:54:59.525Z,9.70
2023-05-09T02:56:03.974Z,10.30
2023-05-09T02:57:07.370Z,10.25
2023-05-09T02:58:14.711Z,10.23
2023-05-09T02:59:22.763Z,10.43
2023-05-09T03:00:26.136Z,11.23
2023-05-09T03:01:29.518Z,10.43
2023-05-09T03:02:33.252Z,11.52
2023-05-09T03:03:48.843Z,11.38
2023-05-09T03:05:13.068Z,11.15
2023-05-09T03:06:21.941Z,11.00
2023-05-09T03:07:46.138Z,11.90
2023-05-09T03:09:09.097Z,10.77
2023-05-09T03:10:13.686Z,11.82
2023-05-09T03:11:18.436Z,12.45
2023-05-09T03:12:24.065Z,14.38
2023-05-09T03:13:29.682Z,13.63
2023-05-09T03:14:34.102Z,13.88
2023-05-09T03:15:38.040Z,13.00
2023-05-09T03:16:42.147Z,13.00
2023-05-09T03:17:54.847Z,12.73
2023-05-09T03:18:58.720Z,13.70
2023-05-09T03:20:04.256Z,14.10
2023-05-09T03:21:08.340Z,12.88
2023-05-09T03:22:13.397Z,13.15
2023-05-09T03:23:22.695Z,12.32
2023-05-09T03:24:28.336Z,15.20
2023-05-09T03:25:31.540Z,14.45
2023-05-09T03:26:37.650Z,12.35
2023-05-09T03:27:40.748Z,13.82
2023-05-09T03:28:49.357Z,13.48
2023-05-09T03:29:52.703Z,13.93
2023-05-09T03:30:57.066Z,14.07
2023-05-09T03:32:03.858Z,13.82
2023-05-09T03:33:08.276Z,13.98
2023-05-09T03:34:15.232Z,14.55
2023-05-09T03:35:20.044Z,14.70
2023-05-09T03:36:23.785Z,14.93
2023-05-09T03:37:27.466Z,14.20
2023-05-09T03:38:30.824Z,13.63
2023-05-09T03:39:34.026Z,14.90
2023-05-09T03:40:37.680Z,13.63
2023-05-09T03:41:44.537Z,14.30
2023-05-09T03:42:48.658Z,14.98
2023-05-09T03:43:52.254Z,13.88
2023-05-09T03:44:55.383Z,15.02
2023-05-09T03:45:59.683Z,15.00
2023-05-09T03:47:03.581Z,14.70
2023-05-09T03:48:13.231Z,16.33
2023-05-09T03:49:23.803Z,15.85
2023-05-09T03:50:29.970Z,15.73
2023-05-09T03:51:35.064Z,17.15
2023-05-09T03:52:40.242Z,16.88
2023-05-09T03:53:47.065Z,16.63
2023-05-09T03:54:51.862Z,17.05
2023-05-09T03:55:55.476Z,16.23
2023-05-09T03:56:59.372Z,17.50
2023-05-09T03:58:03.806Z,16.42
2023-05-09T03:59:08.341Z,16.58
2023-05-09T04:00:12.643Z,16.40
2023-05-09T04:01:26.020Z,16.42
2023-05-09T04:02:31.689Z,16.55
2023-05-09T04:03:35.721Z,15.98
2023-05-09T04:04:39.315Z,14.98
2023-05-09T04:05:42.642Z,16.60
2023-05-09T04:06:52.632Z,16.38
2023-05-09T04:07:56.173Z,17.30
2023-05-09T04:08:59.538Z,15.20
2023-05-09T04:10:02.739Z,16.30
2023-05-09T04:11:06.469Z,15.98
2023-05-09T04:12:11.100Z,16.00
2023-05-09T04:13:14.987Z,16.38
2023-05-09T04:14:18.746Z,15.95
2023-05-09T04:15:23.092Z,17.23
2023-05-09T04:16:26.745Z,18.23
2023-05-09T04:17:31.605Z,18.20
2023-05-09T04:18:36.663Z,19.15
2023-05-09T04:19:40.369Z,19.23
2023-05-09T04:20:43.628Z,19.65
2023-05-09T04:21:47.408Z,18.95
2023-05-09T04:22:50.582Z,20.73
2023-05-09T04:23:55.145Z,18.75
2023-05-09T04:25:08.465Z,19.60
2023-05-09T04:26:12.567Z,20.20
2023-05-09T04:27:16.722Z,19.08
2023-05-09T04:28:20.264Z,18.45
2023-05-09T04:29:23.779Z,17.75
2023-05-09T04:30:30.895Z,18.50
2023-05-09T04:31:36.233Z,17.00
2023-05-09T04:32:40.531Z,15.65
2023-05-09T04:33:44.066Z,17.30
2023-05-09T04:34:47.389Z,16.02
2023-05-09T04:35:57.836Z,17.38
2023-05-09T04:37:01.566Z,16.30
2023-05-09T04:38:05.319Z,15.93
2023-05-09T04:39:08.796Z,16.35
2023-05-09T04:40:13.392Z,17.52
2023-05-09T04:41:24.736Z,17.02
2023-05-09T04:42:27.758Z,15.98
2023-05-09T04:43:32.579Z,17.58
2023-05-09T04:44:35.999Z,15.10
2023-05-09T04:45:39.536Z,15.75
2023-05-09T04:46:43.161Z,17.02
2023-05-09T04:47:46.522Z,16.83
2023-05-09T04:48:50.261Z,16.70
2023-05-09T04:49:53.397Z,16.15
2023-05-09T04:50:56.663Z,15.43
2023-05-09T04:51:59.688Z,15.02
2023-05-09T04:53:03.339Z,16.23
2023-05-09T04:54:07.085Z,15.80
2023-05-09T04:55:13.742Z,16.27
2023-05-09T04:56:21.888Z,14.68
2023-05-09T04:57:25.911Z,14.55
2023-05-09T04:58:34.479Z,14.68
2023-05-09T04:59:38.276Z,14.43
2023-05-09T05:00:41.690Z,16.15
2023-05-09T05:01:45.214Z,14.20
2023-05-09T05:02:48.453Z,15.10
2023-05-09T05:03:52.071Z,15.02
2023-05-09T05:05:06.218Z,14.68
2023-05-09T05:06:15.953Z,15.20
2023-05-09T05:07:19.816Z,14.63
2023-05-09T05:08:23.502Z,13.73
2023-05-09T05:09:27.335Z,14.13
2023-05-09T05:10:32.809Z,14.38
2023-05-09T05:11:50.084Z,13.40
2023-05-09T05:13:01.058Z,12.98
2023-05-09T05:14:04.242Z,13.10
2023-05-09T05:15:08.032Z,13.90
2023-05-09T05:16:11.731Z,12.98
2023-05-09T05:17:17.341Z,14.13
2023-05-09T05:18:20.818Z,13.93
2023-05-09T05:19:25.619Z,13.43
2023-05-09T05:20:28.908Z,14.05
2023-05-09T05:21:32.840Z,13.95
2023-05-09T05:22:36.839Z,13.63
2023-05-09T05:23:40.037Z,13.25
2023-05-09T05:24:43.192Z,13.30
2023-05-09T05:25:46.686Z,11.82
2023-05-09T05:26:50.739Z,13.30
2023-05-09T05:27:53.856Z,12.82
2023-05-09T05:28:57.456Z,12.30
2023-05-09T05:30:02.047Z,11.82
2023-05-09T05:31:05.643Z,11.90
2023-05-09T05:32:10.688Z,11.13
2023-05-09T05:33:14.120Z,11.10
2023-05-09T05:34:18.515Z,11.85
2023-05-09T05:35:23.678Z,10.75
2023-05-09T05:36:29.430Z,10.77
2023-05-09T05:37:33.541Z,10.20
2023-05-09T05:38:37.271Z,9.85
2023-05-09T05:39:41.934Z,10.15
2023-05-09T05:40:46.726Z,10.73
2023-05-09T05:41:52.088Z,10.77
2023-05-09T05:42:55.648Z,9.55
2023-05-09T05:43:59.624Z,8.77
2023-05-09T05:45:06.454Z,10.20
2023-05-09T05:46:14.259Z,9.30
2023-05-09T05:47:19.020Z,10.15
2023-05-09T05:48:22.898Z,10.18
2023-05-09T05:49:26.749Z,9.55
2023-05-09T05:50:29.982Z,10.45
2023-05-09T05:51:33.820Z,9.43
2023-05-09T05:52:39.463Z,10.18
2023-05-09T05:53:42.950Z,9.30
2023-05-09T05:54:46.192Z,9.60
2023-05-09T05:55:49.604Z,10.45
2023-05-09T05:56:52.656Z,9.52
2023-05-09T05:57:56.048Z,10.02
2023-05-09T05:58:58.847Z,10.23
2023-05-09T06:00:05.805Z,9.02
2023-05-09T06:01:16.966Z,9.20
2023-05-09T06:02:20.311Z,8.77
2023-05-09T06:03:24.262Z,8.38
2023-05-09T06:04:33.878Z,8.15
2023-05-09T06:05:37.690Z,7.72
2023-05-09T06:06:41.870Z,7.30
2023-05-09T06:07:44.876Z,7.70
2023-05-09T06:08:51.553Z,7.88
2023-05-09T06:09:54.653Z,8.05
2023-05-09T06:10:57.892Z,7.78
2023-05-09T06:12:02.845Z,7.68
2023-05-09T06:13:06.721Z,7.57
2023-05-09T06:14:11.152Z,7.65
2023-05-09T06:15:14.619Z,7.53
2023-05-09T06:16:21.657Z,6.90
2023-05-09T06:17:27.340Z,7.82
2023-05-09T06:18:31.860Z,7.00
2023-05-09T06:19:37.341Z,7.20
2023-05-09T06:20:40.431Z,7.85
2023-05-09T06:21:43.862Z,6.90
2023-05-09T06:22:47.144Z,6.47
2023-05-09T06:24:02.032Z,6.28
2023-05-09T06:25:10.748Z,6.65
2023-05-09T06:26:14.937Z,6.68
2023-05-09T06:27:28.274Z,6.72
2023-05-09T06:28:31.441Z,6.78
2023-05-09T06:29:35.057Z,6.38
2023-05-09T06:30:38.129Z,6.18
2023-05-09T06:31:41.252Z,6.90
2023-05-09T06:32:44.530Z,5.78
2023-05-09T06:33:47.650Z,5.68
2023-05-09T06:34:50.711Z,5.13
2023-05-09T06:35:53.694Z,5.80
2023-05-09T06:36:56.850Z,5.20
2023-05-09T06:37:59.842Z,5.90
2023-05-09T06:39:03.149Z,5.28
2023-05-09T06:40:07.452Z,5.78
2023-05-09T06:41:10.723Z,5.13
2023-05-09T06:42:13.814Z,5.20
2023-05-09T06:43:16.794Z,5.35
2023-05-09T06:44:19.843Z,6.00
2023-05-09T06:45:23.096Z,6.10
2023-05-09T06:46:26.525Z,5.43
2023-05-09T06:47:29.717Z,6.00
2023-05-09T06:48:32.805Z,5.43
2023-05-09T06:49:36.425Z,5.85
2023-05-09T06:50:39.744Z,5.20
2023-05-09T06:51:42.807Z,4.78
2023-05-09T06:52:45.823Z,4.95
2023-05-09T06:53:49.110Z,4.68
2023-05-09T06:54:52.099Z,4.25
2023-05-09T06:55:55.795Z,4.47
2023-05-09T06:56:59.498Z,4.47
2023-05-09T06:58:03.785Z,4.20
2023-05-09T06:59:07.859Z,5.03
2023-05-09T07:00:11.871Z,4.38
2023-05-09T07:01:15.270Z,4.97
2023-05-09T07:02:18.589Z,4.22
2023-05-09T07:03:21.858Z,4.50
2023-05-09T07:04:24.975Z,4.20
2023-05-09T07:05:27.986Z,3.90
2023-05-09T07:06:31.712Z,3.90
2023-05-09T07:07:34.828Z,3.83
2023-05-09T07:08:38.078Z,3.40
2023-05-09T07:09:41.272Z,3.22
2023-05-09T07:10:44.527Z,3.38
2023-05-09T07:11:47.605Z,3.72
2023-05-09T07:12:53.567Z,3.15
2023-05-09T07:13:56.615Z,3.03
2023-05-09T07:15:00.228Z,2.95
2023-05-09T07:16:03.672Z,3.08
2023-05-09T07:17:21.708Z,3.35
2023-05-09T07:18:26.163Z,2.95
2023-05-09T07:19:29.245Z,2.78
2023-05-09T07:20:32.274Z,2.90
2023-05-09T07:21:35.647Z,2.67
2023-05-09T07:22:38.758Z,2.22
2023-05-09T07:23:41.888Z,2.70
2023-05-09T07:24:46.442Z,2.58
2023-05-09T07:25:49.678Z,2.40
2023-05-09T07:26:53.135Z,2.20
2023-05-09T07:27:56.347Z,2.20
2023-05-09T07:28:59.588Z,2.42
2023-05-09T07:30:04.921Z,2.50
2023-05-09T07:31:09.496Z,2.33
2023-05-09T07:32:12.580Z,2.00
2023-05-09T07:33:15.646Z,2.17
2023-05-09T07:34:20.064Z,1.90
2023-05-09T07:35:23.294Z,1.95
2023-05-09T07:36:26.378Z,2.03
2023-05-09T07:37:29.408Z,1.77
2023-05-09T07:38:32.893Z,2.05
2023-05-09T07:39:35.922Z,1.70
2023-05-09T07:40:39.015Z,1.83
2023-05-09T07:41:42.372Z,1.63
2023-05-09T07:42:49.892Z,1.70
2023-05-09T07:43:53.247Z,1.50
2023-05-09T07:44:56.738Z,1.42
2023-05-09T07:45:59.897Z,1.60
2023-05-09T07:47:03.006Z,1.88
2023-05-09T07:48:06.593Z,1.88
2023-05-09T07:49:09.717Z,1.88
2023-05-09T07:50:12.810Z,1.58
2023-05-09T07:51:16.012Z,2.00
2023-05-09T07:52:19.113Z,1.38
2023-05-09T07:53:22.200Z,1.33
2023-05-09T07:54:25.537Z,1.60
2023-05-09T07:55:28.823Z,1.25
2023-05-09T07:56:31.869Z,1.30
2023-05-09T07:57:35.105Z,1.10
2023-05-09T07:58:38.508Z,1.30
2023-05-09T07:59:42.412Z,1.45
2023-05-09T08:00:45.616Z,1.10
2023-05-09T08:01:48.772Z,1.15
2023-05-09T08:02:55.135Z,1.45
2023-05-09T08:03:58.387Z,1.25
2023-05-09T08:05:01.662Z,1.33
2023-05-09T08:06:04.878Z,1.23
2023-05-09T08:07:09.071Z,1.50
2023-05-09T08:08:12.220Z,1.00
2023-05-09T08:09:15.274Z,0.95
2023-05-09T08:10:18.567Z,1.10
2023-05-09T08:11:21.529Z,0.80
2023-05-09T08:12:24.882Z,0.93
2023-05-09T08:13:28.128Z,1.13
2023-05-09T08:14:31.546Z,1.10
2023-05-09T08:15:34.844Z,1.15
2023-05-09T08:16:37.985Z,1.10
2023-05-09T08:17:41.137Z,1.05
2023-05-09T08:18:45.226Z,0.90
2023-05-09T08:19:48.420Z,1.48
2023-05-09T08:20:51.523Z,1.10
2023-05-09T08:21:55.790Z,1.20
2023-05-09T08:22:58.924Z,1.20
2023-05-09T08:24:02.261Z,1.25
2023-05-09T08:25:06.137Z,1.63
2023-05-09T08:26:09.277Z,1.30
2023-05-09T08:27:13.971Z,1.50
2023-05-09T08:28:16.946Z,1.30
2023-05-09T08:29:20.063Z,1.55
2023-05-09T08:30:23.380Z,1.40
2023-05-09T08:31:27.183Z,1.83
2023-05-09T08:32:30.387Z,1.58
2023-05-09T08:33:33.318Z,1.17
2023-05-09T08:34:36.812Z,1.10
2023-05-09T08:35:40.035Z,1.30
2023-05-09T08:36:45.645Z,1.08
2023-05-09T08:37:48.982Z,1.30
2023-05-09T08:38:52.002Z,1.08
2023-05-09T08:39:55.137Z,1.23
2023-05-09T08:41:01.996Z,1.10
2023-05-09T08:42:05.149Z,0.93
2023-05-09T08:43:11.737Z,1.10
2023-05-09T08:44:15.033Z,0.90
2023-05-09T08:45:29.449Z,1.15
2023-05-09T08:46:39.722Z,1.02
2023-05-09T08:47:43.327Z,1.10
2023-05-09T08:48:46.517Z,0.70
2023-05-09T08:49:51.397Z,1.00
2023-05-09T08:50:57.396Z,0.88
2023-05-09T08:52:00.819Z,0.63
2023-05-09T08:53:04.229Z,1.15
2023-05-09T08:54:08.007Z,1.08
2023-05-09T08:55:12.668Z,0.93
2023-05-09T08:56:15.855Z,0.70
2023-05-09T08:57:19.300Z,0.80
2023-05-09T08:58:22.902Z,0.90
2023-05-09T08:59:28.283Z,0.80
2023-05-09T09:00:33.302Z,0.82
2023-05-09T09:01:36.893Z,0.75
2023-05-09T09:02:43.917Z,0.77
2023-05-09T09:03:49.580Z,0.80
2023-05-09T09:04:54.938Z,0.80
2023-05-09T09:05:59.275Z,0.80
2023-05-09T09:07:05.934Z,0.80
2023-05-09T09:08:11.114Z,0.90
2023-05-09T09:09:17.293Z,1.25
2023-05-09T09:10:21.803Z,0.80
2023-05-09T09:11:24.905Z,1.17
2023-05-09T09:12:27.996Z,0.93
2023-05-09T09:13:31.794Z,1.05
2023-05-09T09:14:39.793Z,0.85
2023-05-09T09:15:47.077Z,0.90
2023-05-09T09:16:52.298Z,0.90
2023-05-09T09:17:58.597Z,0.70
2023-05-09T09:19:02.528Z,0.88
2023-05-09T09:20:10.406Z,0.70
2023-05-09T09:21:19.449Z,0.73
2023-05-09T09:22:23.760Z,0.80
2023-05-09T09:23:29.072Z,0.88
2023-05-09T09:24:32.442Z,0.80
2023-05-09T09:25:35.754Z,1.08
2023-05-09T09:26:48.182Z,0.93
2023-05-09T09:27:51.428Z,0.70
2023-05-09T09:28:56.860Z,0.70
2023-05-09T09:30:13.156Z,1.10
2023-05-09T09:31:31.576Z,1.02
2023-05-09T09:32:35.541Z,0.73
2023-05-09T09:33:39.006Z,0.70
2023-05-09T09:34:42.165Z,0.90
2023-05-09T09:35:45.466Z,1.00
2023-05-09T09:36:48.816Z,0.70
2023-05-09T09:38:00.699Z,1.15
2023-05-09T09:39:06.050Z,1.00
2023-05-09T09:40:11.475Z,1.00
2023-05-09T09:41:15.188Z,0.80
2023-05-09T09:42:18.333Z,1.05
2023-05-09T09:43:35.708Z,0.95
2023-05-09T09:44:39.089Z,0.88
2023-05-09T09:45:42.701Z,0.85
2023-05-09T09:46:53.858Z,0.85
2023-05-09T09:47:57.087Z,0.80
2023-05-09T09:49:00.307Z,1.15
2023-05-09T09:50:23.110Z,0.80
2023-05-09T09:51:29.090Z,0.98
2023-05-09T09:52:32.475Z,0.88
2023-05-09T09:53:43.560Z,0.90
2023-05-09T09:54:46.596Z,0.90
2023-05-09T09:55:52.040Z,1.00
2023-05-09T09:56:56.726Z,0.90
2023-05-09T09:58:00.336Z,1.05
2023-05-09T09:59:15.226Z,1.10
2023-05-09T10:00:24.986Z,0.80
2023-05-09T10:01:28.062Z,0.98
2023-05-09T10:02:31.310Z,0.88
2023-05-09T10:03:43.062Z,0.98
2023-05-09T10:04:46.244Z,0.90
2023-05-09T10:06:02.672Z,0.88
2023-05-09T10:07:08.499Z,0.70
2023-05-09T10:08:11.813Z,0.80
2023-05-09T10:09:15.055Z,0.80
2023-05-09T10:10:18.126Z,0.80
2023-05-09T10:11:21.849Z,0.93
2023-05-09T10:12:24.997Z,1.02
2023-05-09T10:13:29.099Z,1.08
2023-05-09T10:14:35.871Z,0.93
2023-05-09T10:15:52.270Z,0.80
2023-05-09T10:16:58.013Z,0.88
2023-05-09T10:18:04.643Z,0.80
2023-05-09T10:19:08.151Z,0.82
2023-05-09T10:20:14.179Z,0.80
2023-05-09T10:21:18.019Z,0.90
2023-05-09T10:22:22.175Z,0.70
2023-05-09T10:23:25.604Z,0.60
2023-05-09T10:24:38.759Z,0.60
2023-05-09T10:26:32.085Z,0.82
2023-05-09T10:27:37.976Z,0.90
2023-05-09T10:28:42.319Z,0.70
2023-05-09T10:29:51.879Z,0.90
2023-05-09T10:31:24.562Z,0.77
2023-05-09T10:32:51.505Z,0.80
2023-05-09T10:33:56.099Z,0.70
2023-05-09T10:35:07.340Z,0.80
2023-05-09T10:36:11.879Z,0.68
2023-05-09T10:37:17.201Z,0.85
2023-05-09T10:38:21.602Z,0.80
2023-05-09T10:39:25.095Z,0.90
2023-05-09T10:40:30.535Z,0.65
2023-05-09T10:41:33.858Z,0.90
2023-05-09T10:42:37.469Z,0.98
2023-05-09T10:43:41.274Z,0.75
2023-05-09T10:44:44.701Z,0.70
2023-05-09T10:45:48.738Z,0.80
2023-05-09T10:46:53.141Z,0.93
2023-05-09T10:47:57.869Z,0.85
2023-05-09T10:49:02.388Z,0.98
2023-05-09T10:50:10.332Z,0.95
2023-05-09T10:51:13.925Z,0.65
2023-05-09T10:52:17.466Z,0.90
2023-05-09T10:53:24.308Z,0.80
2023-05-09T10:54:33.702Z,1.10
2023-05-09T10:56:00.340Z,0.88
2023-05-09T10:57:05.631Z,0.88
2023-05-09T10:58:33.753Z,1.00
2023-05-09T10:59:43.153Z,1.00
2023-05-09T11:00:51.015Z,0.90
2023-05-09T11:02:01.128Z,0.90
2023-05-09T11:03:08.315Z,0.98
2023-05-09T11:04:17.443Z,1.00
2023-05-09T11:05:21.581Z,1.02
2023-05-09T11:06:52.291Z,0.98
2023-05-09T11:08:25.507Z,1.20
2023-05-09T11:09:39.172Z,0.70
2023-05-09T11:10:45.395Z,0.95
2023-05-09T11:12:14.116Z,1.17
2023-05-09T11:13:24.139Z,1.20
2023-05-09T11:14:46.999Z,1.05
2023-05-09T11:16:01.690Z,1.45
2023-05-09T11:17:10.345Z,1.10
2023-05-09T11:18:13.541Z,1.08
2023-05-09T11:19:46.252Z,1.27
2023-05-09T11:20:49.858Z,1.05
2023-05-09T11:22:20.019Z,1.15
2023-05-09T11:23:27.523Z,1.13
2023-05-09T11:24:32.729Z,1.50
2023-05-09T11:25:36.200Z,1.15
2023-05-09T11:26:40.372Z,0.95
2023-05-09T11:27:45.332Z,1.30
2023-05-09T11:28:54.369Z,1.40
2023-05-09T11:29:59.788Z,1.45
2023-05-09T11:31:16.388Z,1.58
2023-05-09T11:32:22.517Z,1.70
2023-05-09T11:33:30.372Z,1.40
2023-05-09T11:34:34.715Z,1.20
2023-05-09T11:35:38.379Z,1.52
2023-05-09T11:36:48.155Z,1.17
2023-05-09T11:38:05.931Z,1.77
2023-05-09T11:39:10.893Z,1.55
2023-05-09T11:40:17.385Z,1.45
2023-05-09T11:41:21.165Z,2.28
2023-05-09T11:42:26.572Z,1.13
2023-05-09T11:43:30.185Z,1.42
2023-05-09T11:44:36.492Z,1.65
2023-05-09T11:45:40.778Z,1.55
2023-05-09T11:46:45.343Z,1.27
2023-05-09T11:47:50.116Z,1.40
2023-05-09T11:48:54.820Z,1.92
2023-05-09T11:49:59.878Z,1.20
2023-05-09T11:51:07.675Z,1.70
2023-05-09T11:52:12.270Z,1.27
2023-05-09T11:53:15.476Z,1.00
2023-05-09T11:54:18.556Z,1.70
2023-05-09T11:55:23.088Z,1.80
2023-05-09T11:56:26.394Z,1.33
2023-05-09T11:57:29.884Z,1.55
2023-05-09T11:58:32.935Z,1.45
2023-05-09T11:59:37.033Z,1.40
2023-05-09T12:00:46.495Z,1.25
2023-05-09T12:01:49.679Z,1.33
2023-05-09T12:02:54.130Z,1.48
2023-05-09T12:03:59.278Z,1.75
2023-05-09T12:05:15.455Z,1.38
2023-05-09T12:06:19.915Z,1.45
2023-05-09T12:07:22.924Z,1.48
2023-05-09T12:08:27.113Z,1.20
2023-05-09T12:09:35.279Z,1.30
2023-05-09T12:10:39.650Z,1.65
2023-05-09T12:11:50.292Z,1.38
2023-05-09T12:12:57.353Z,1.33
2023-05-09T12:14:00.483Z,1.15
2023-05-09T12:15:07.553Z,1.30
2023-05-09T12:16:10.644Z,1.65
2023-05-09T12:17:13.836Z,1.83
2023-05-09T12:18:18.327Z,1.48
2023-05-09T12:19:24.441Z,1.35
2023-05-09T12:20:27.586Z,1.70
2023-05-09T12:21:30.638Z,1.30
2023-05-09T12:22:35.006Z,1.80
2023-05-09T12:23:38.170Z,1.73
2023-05-09T12:24:41.482Z,1.40
2023-05-09T12:25:56.219Z,1.67
2023-05-09T12:27:00.403Z,1.48
2023-05-09T12:28:04.103Z,1.30
2023-05-09T12:29:07.560Z,1.38
2023-05-09T12:30:14.318Z,1.40
2023-05-09T12:31:18.615Z,1.92
2023-05-09T12:32:22.399Z,1.60
2023-05-09T12:33:26.103Z,1.67
2023-05-09T12:34:29.743Z,1.60
2023-05-09T12:35:33.135Z,1.50
2023-05-09T12:36:37.177Z,1.40
2023-05-09T12:37:40.337Z,1.40
2023-05-09T12:38:55.620Z,1.50
2023-05-09T12:40:05.245Z,1.30
2023-05-09T12:41:22.438Z,1.38
2023-05-09T12:42:35.821Z,1.30
2023-05-09T12:43:44.019Z,1.65
2023-05-09T12:44:50.825Z,1.27
2023-05-09T12:45:53.953Z,1.42
2023-05-09T12:47:05.018Z,1.27
2023-05-09T12:48:09.562Z,1.30
2023-05-09T12:49:22.855Z,1.90
2023-05-09T12:50:36.542Z,1.60
2023-05-09T12:51:50.488Z,1.30
2023-05-09T12:53:02.713Z,1.50
2023-05-09T12:54:11.100Z,1.40
2023-05-09T12:55:14.847Z,1.55
2023-05-09T12:56:20.876Z,1.70
2023-05-09T12:57:29.398Z,1.40
2023-05-09T12:58:34.513Z,1.60
2023-05-09T12:59:41.009Z,1.58
2023-05-09T13:00:46.949Z,1.60
2023-05-09T13:01:56.698Z,1.38
2023-05-09T13:03:00.344Z,1.75
2023-05-09T13:04:07.905Z,1.40
2023-05-09T13:05:12.510Z,1.10
2023-05-09T13:06:15.690Z,1.48
2023-05-09T13:07:18.965Z,1.83
2023-05-09T13:08:22.538Z,1.30
2023-05-09T13:09:27.652Z,1.25
2023-05-09T13:10:30.820Z,1.23
2023-05-09T13:11:35.600Z,1.38
2023-05-09T13:12:40.538Z,1.27
2023-05-09T13:13:43.615Z,1.23
2023-05-09T13:14:47.010Z,1.15
2023-05-09T13:15:50.335Z,1.20
2023-05-09T13:16:54.000Z,1.67
2023-05-09T13:17:57.203Z,1.98
2023-05-09T13:19:01.739Z,1.20
2023-05-09T13:20:05.830Z,1.65
2023-05-09T13:21:08.975Z,1.52
2023-05-09T13:22:12.615Z,1.20
2023-05-09T13:23:15.908Z,1.50
2023-05-09T13:24:19.194Z,1.35
2023-05-09T13:25:22.364Z,1.10
2023-05-09T13:26:27.387Z,1.60
2023-05-09T13:27:30.567Z,1.25
2023-05-09T13:28:33.940Z,1.58
2023-05-09T13:29:37.201Z,1.45
2023-05-09T13:30:40.341Z,1.38
2023-05-09T13:31:43.579Z,1.23
2023-05-09T13:32:47.601Z,1.15
2023-05-09T13:33:52.083Z,1.30
2023-05-09T13:34:55.470Z,1.23
2023-05-09T13:35:58.529Z,1.40
2023-05-09T13:37:01.553Z,1.38
2023-05-09T13:38:04.591Z,1.65
2023-05-09T13:39:08.017Z,1.50
2023-05-09T13:40:12.024Z,1.77
2023-05-09T13:41:22.311Z,1.27
2023-05-09T13:42:25.579Z,1.13
2023-05-09T13:43:28.781Z,1.30
2023-05-09T13:44:31.942Z,1.42
2023-05-09T13:45:35.018Z,1.40
2023-05-09T13:46:38.124Z,1.25
2023-05-09T13:47:41.507Z,1.35
2023-05-09T13:48:44.814Z,1.48
2023-05-09T13:49:47.989Z,1.40
2023-05-09T13:50:51.733Z,1.65
2023-05-09T13:51:57.663Z,1.88
2023-05-09T13:53:00.882Z,1.40
2023-05-09T13:54:08.544Z,1.30
2023-05-09T13:55:11.707Z,1.60
2023-05-09T13:56:14.794Z,1.55
2023-05-09T13:57:18.136Z,1.33
2023-05-09T13:58:21.379Z,1.50
2023-05-09T13:59:24.525Z,1.38
2023-05-09T14:00:27.672Z,1.48
2023-05-09T14:01:31.124Z,1.45
2023-05-09T14:02:34.486Z,1.80
2023-05-09T14:03:37.658Z,1.52
2023-05-09T14:04:42.468Z,1.42
2023-05-09T14:05:45.621Z,1.45
2023-05-09T14:06:50.240Z,1.40
2023-05-09T14:07:53.747Z,1.50
2023-05-09T14:08:57.603Z,1.65
2023-05-09T14:10:10.848Z,1.23
2023-05-09T14:11:15.090Z,1.77
2023-05-09T14:12:19.414Z,1.50
2023-05-09T14:13:22.839Z,1.30
2023-05-09T14:14:26.301Z,1.45
2023-05-09T14:15:30.081Z,1.65
2023-05-09T14:16:33.185Z,1.40
2023-05-09T14:17:36.731Z,1.70
2023-05-09T14:18:39.992Z,1.83
2023-05-09T14:19:43.133Z,1.40
2023-05-09T14:20:46.161Z,1.20
2023-05-09T14:21:49.403Z,1.48
2023-05-09T14:22:55.230Z,1.15
2023-05-09T14:23:58.407Z,1.38
2023-05-09T14:25:01.530Z,1.50
2023-05-09T14:26:04.881Z,1.60
2023-05-09T14:27:07.945Z,1.38
2023-05-09T14:28:11.223Z,1.23
2023-05-09T14:29:14.440Z,1.40
2023-05-09T14:30:17.704Z,1.15
2023-05-09T14:31:21.021Z,1.35
2023-05-09T14:32:24.036Z,1.25
2023-05-09T14:33:28.061Z,1.10
2023-05-09T14:34:31.098Z,1.40